Data for 08/31/2014

Time Sea-Level Adjusted Pressure Absolute Pressure Temperature Relative Humidity Dew Point   
(mb) (inHg) (mb) (inHg) (C) (F) (%) (C) (F)
00:05 1015 29.97 844 24.92 10.4 50.7 82 7.5 45.5
00:10 1015 29.97 844 24.92 10 50.1 85 7.6 45.6
00:15 1014 29.94 844 24.92 9.9 49.8 84 7.4 45.3
00:20 1014 29.94 844 24.92 9.9 49.8 85 7.5 45.5
00:25 1014 29.94 844 24.92 9.9 49.8 85 7.5 45.5
00:30 1014 29.94 844 24.92 9.8 49.6 85 7.5 45.4
00:35 1014 29.94 844 24.92 9.9 49.8 85 7.4 45.4
00:40 1015 29.97 844 24.92 9.9 49.9 83 7.2 44.9
00:45 1015 29.97 844 24.92 10 49.9 84 7.3 45.2
00:50 1014 29.94 844 24.92 9.9 49.9 83 7.2 45
00:55 1014 29.94 844 24.92 9.9 49.8 85 7.4 45.4
01:00 1014 29.94 844 24.92 9.8 49.7 84 7.2 44.9
01:05 1014 29.94 844 24.92 9.7 49.5 83 7 44.7
01:10 1014 29.94 844 24.92 9.6 49.3 84 7.1 44.8
01:15 1014 29.94 843 24.89 9.5 49.1 85 7 44.6
01:20 1014 29.94 843 24.89 9.4 48.8 85 7 44.6
01:25 1014 29.94 844 24.92 9.2 48.6 86 7 44.5
01:30 1014 29.94 844 24.92 9.2 48.5 86 7 44.6
01:35 1015 29.97 844 24.92 9.1 48.3 87 7 44.5
01:40 1015 29.97 844 24.92 9.1 48.3 85 6.7 44.1
01:45 1015 29.97 844 24.92 9.3 48.7 85 6.8 44.2
01:50 1015 29.97 844 24.92 9.2 48.5 85 6.7 44.1
01:55 1015 29.97 844 24.92 9.2 48.5 84 6.6 44
02:00 1015 29.97 844 24.92 9.1 48.4 85 6.7 44.1
02:05 1015 29.97 844 24.92 9.1 48.4 85 6.7 44
02:10 1015 29.97 844 24.92 9.1 48.4 86 6.8 44.3
02:15 1015 29.97 844 24.92 8.9 48.1 87 6.8 44.3
02:20 1015 29.97 844 24.92 8.8 47.9 87 6.8 44.3
02:25 1015 29.97 844 24.92 8.7 47.7 88 6.8 44.2
02:30 1015 29.97 844 24.92 8.7 47.6 87 6.7 44
02:35 1015 29.97 844 24.92 8.7 47.7 86 6.5 43.7
02:40 1015 29.97 844 24.92 8.8 47.9 86 6.6 44
02:45 1015 29.97 844 24.92 8.8 47.9 86 6.7 44
02:50 1015 29.97 844 24.92 8.9 47.9 84 6.4 43.5
02:55 1015 29.97 844 24.92 9 48.1 83 6.2 43.2
03:00 1015 29.97 844 24.92 9.1 48.4 82 6.2 43.1
03:05 1015 29.97 844 24.92 9.2 48.6 82 6.3 43.3
03:10 1015 29.97 844 24.92 9.2 48.5 82 6.2 43.2
03:15 1015 29.97 844 24.92 9.1 48.5 83 6.4 43.6
03:20 1015 29.97 844 24.92 8.9 48 85 6.5 43.7
03:25 1015 29.97 844 24.92 8.7 47.6 85 6.3 43.4
03:30 1015 29.97 844 24.92 8.7 47.7 85 6.4 43.5
03:35 1015 29.97 844 24.92 8.7 47.6 85 6.4 43.4
03:40 1015 29.97 844 24.92 8.6 47.5 86 6.4 43.6
03:45 1015 29.97 844 24.92 8.6 47.4 86 6.3 43.4
03:50 1015 29.97 844 24.92 8.7 47.6 85 6.3 43.3
03:55 1015 29.97 844 24.92 9 48.1 83 6.3 43.3
04:00 1015 29.97 844 24.92 9.1 48.4 83 6.3 43.4
04:05 1015 29.97 844 24.92 9.1 48.4 84 6.5 43.7
04:10 1015 29.97 844 24.92 8.9 48 85 6.6 43.8
04:15 1015 29.97 844 24.92 8.9 48 84 6.4 43.4
04:20 1015 29.97 844 24.92 8.9 48 84 6.4 43.5
04:25 1015 29.97 844 24.92 9 48.3 81 5.9 42.7
04:30 1015 29.97 844 24.92 9.3 48.8 80 6.1 43.1
04:35 1015 29.97 844 24.92 9.2 48.6 83 6.6 43.8
04:40 1015 29.97 844 24.92 8.9 48.1 85 6.5 43.8
04:45 1015 29.97 844 24.92 8.9 48 84 6.3 43.3
04:50 1015 29.97 844 24.92 9 48.2 83 6.3 43.4
04:55 1015 29.97 844 24.92 9 48.1 85 6.5 43.8
05:00 1015 29.97 844 24.92 8.9 48 85 6.4 43.6
05:05 1015 29.97 844 24.92 8.9 48.1 84 6.4 43.5
05:10 1015 29.97 844 24.92 9 48.1 84 6.4 43.5
05:15 1015 29.97 844 24.92 9 48.1 83 6.3 43.4
05:20 1015 29.97 844 24.92 9 48.2 83 6.4 43.5
05:25 1015 29.97 844 24.92 9.1 48.3 84 6.6 43.8
05:30 1015 29.97 844 24.92 8.8 47.9 85 6.4 43.5
05:35 1015 29.97 845 24.95 8.8 47.8 86 6.6 43.9
05:40 1015 29.97 845 24.95 8.7 47.7 86 6.5 43.7
05:45 1015 29.97 845 24.95 8.8 47.8 84 6.3 43.4
05:50 1015 29.97 845 24.95 8.9 48 84 6.3 43.3
05:55 1015 29.97 845 24.95 9 48.2 83 6.2 43.2
06:00 1015 29.97 845 24.95 9.1 48.4 83 6.4 43.5
06:05 1016 30 845 24.95 9.2 48.5 83 6.5 43.6
06:10 1016 30 845 24.95 9.2 48.5 84 6.6 43.9
06:15 1016 30 845 24.95 9.2 48.6 83 6.5 43.7
06:20 1016 30 845 24.95 9.3 48.8 83 6.5 43.8
06:25 1016 30 845 24.95 9.4 48.9 83 6.7 44
06:30 1016 30 845 24.95 9.4 48.9 84 6.8 44.3
06:35 1016 30 845 24.95 9.4 48.9 84 6.8 44.3
06:40 1016 30 845 24.95 9.4 48.9 84 6.9 44.3
06:45 1016 30 845 24.95 9.5 49 85 7 44.6
06:50 1016 30 845 24.95 9.4 48.9 85 7 44.6
06:55 1016 30 845 24.95 9.4 48.9 85 7.1 44.7
07:00 1016 30 845 24.95 9.5 49 84 6.9 44.5
07:05 1016 30 845 24.95 9.7 49.4 83 6.9 44.5
07:10 1016 30 845 24.95 9.9 49.9 83 7.2 44.9
07:15 1016 30 845 24.95 10.1 50.1 82 7.2 44.9
07:20 1016 30 845 24.95 10.3 50.5 81 7.3 45.1
07:25 1016 30 846 24.98 10.4 50.7 82 7.5 45.5
07:30 1016 30 846 24.98 10.5 51 80 7.3 45.1
07:35 1016 30 846 24.98 10.7 51.3 80 7.4 45.4
07:40 1016 30 846 24.98 11.1 51.9 79 7.6 45.7
07:45 1016 30 846 24.98 11.4 52.5 77 7.6 45.7
07:50 1016 30 846 24.98 11.8 53.2 76 7.6 45.7
07:55 1016 30 846 24.98 12.3 54.1 75 8 46.5
08:00 1016 30 846 24.98 13 55.3 73 8.2 46.7
08:05 1016 30 846 24.98 12.6 54.8 74 8.1 46.6
08:10 1016 30 846 24.98 12.4 54.2 75 8 46.4
08:15 1017 30.03 846 24.98 12.3 54.1 75 8 46.3
08:20 1017 30.03 846 24.98 12.4 54.3 74 7.9 46.2
08:25 1017 30.03 846 24.98 12.4 54.3 73 7.6 45.7
08:30 1017 30.03 846 24.98 12.5 54.4 72 7.6 45.8
08:35 1017 30.03 846 24.98 12.8 55 70 7.5 45.4
08:40 1017 30.03 846 24.98 12.9 55.2 71 7.8 46.1
08:45 1017 30.03 846 24.98 12.9 55.2 70 7.6 45.6
08:50 1017 30.03 846 24.98 13.1 55.5 68 7.3 45.2
08:55 1017 30.03 846 24.98 13.5 56.3 65 7.1 44.8
09:00 1017 30.03 846 24.98 13.8 56.8 65 7.4 45.4
09:05 1017 30.03 846 24.98 13.8 56.9 62 6.7 44.1
09:10 1017 30.03 846 24.98 13.7 56.7 59 6.1 42.9
09:15 1017 30.03 846 24.98 13.7 56.7 61 6.4 43.5
09:20 1017 30.03 846 24.98 13.9 57 61 6.6 43.9
09:25 1017 30.03 846 24.98 13.9 56.9 60 6.3 43.4
09:30 1017 30.03 846 24.98 13.8 56.9 59 6.1 42.9
09:35 1017 30.03 846 24.98 13.7 56.6 60 6 42.9
09:40 1017 30.03 846 24.98 13.4 56.2 60 6 42.8
09:45 1017 30.03 846 24.98 13.4 56.1 60 5.8 42.4
09:50 1017 30.03 846 24.98 13.5 56.4 61 6.1 43.1
09:55 1017 30.03 846 24.98 13.5 56.4 60 6.1 42.9
10:00 1017 30.03 846 24.98 13.7 56.7 59 5.9 42.5
10:05 1017 30.03 846 24.98 14.3 57.8 56 5.9 42.5
10:10 1017 30.03 846 24.98 15 59 55 6.2 43.1
10:15 1017 30.03 846 24.98 14.7 58.5 56 6.2 43.2
10:20 1017 30.03 846 24.98 14.8 58.7 57 6.4 43.6
10:25 1017 30.03 846 24.98 14.7 58.5 55 5.9 42.7
10:30 1017 30.03 846 24.98 14.2 57.6 57 5.9 42.7
10:35 1017 30.03 846 24.98 14.2 57.5 57 5.8 42.5
10:40 1017 30.03 846 24.98 14 57.1 57 5.6 42.1
10:45 1017 30.03 846 24.98 14 57.1 56 5.4 41.7
10:50 1017 30.03 846 24.98 14 57.2 55 5.1 41.2
10:55 1017 30.03 846 24.98 14.3 57.7 55 5.4 41.7
11:00 1017 30.03 846 24.98 14.6 58.3 54 5.4 41.7
11:05 1017 30.03 846 24.98 15 59 52 5.2 41.4
11:10 1017 30.03 846 24.98 15.3 59.5 52 5.5 41.9
11:15 1017 30.03 846 24.98 15.2 59.3 54 6.1 42.9
11:20 1017 30.03 846 24.98 14.9 58.8 56 6.3 43.3
11:25 1017 30.03 846 24.98 14.7 58.4 62 7.6 45.8
11:30 1017 30.03 846 24.98 13.6 56.4 67 7.6 45.6
11:35 1017 30.03 846 24.98 13.6 56.4 62 6.5 43.7
11:40 1017 30.03 846 24.98 13.9 57.1 60 6.2 43.2
11:45 1017 30.03 846 24.98 14.4 58 57 6 42.9
11:50 1017 30.03 846 24.98 14 57.1 56 5.4 41.8
11:55 1017 30.03 846 24.98 13.5 56.4 60 5.9 42.6
12:00 1017 30.03 846 24.98 13.7 56.6 60 6.1 42.9
12:05 1017 30.03 846 24.98 13.7 56.6 61 6.3 43.3
12:10 1017 30.03 846 24.98 13.8 56.8 59 6 42.8
12:15 1017 30.03 846 24.98 14.3 57.7 55 5.3 41.6
12:20 1017 30.03 846 24.98 14.7 58.4 55 5.9 42.7
12:25 1017 30.03 846 24.98 15 59 53 5.7 42.3
12:30 1017 30.03 846 24.98 14.8 58.6 54 5.5 41.9
12:35 1017 30.03 846 24.98 15.3 59.6 51 5.4 41.6
12:40 1017 30.03 846 24.98 15.6 60.1 53 6.1 43
12:45 1017 30.03 846 24.98 14.9 58.8 54 5.9 42.6
12:50 1017 30.03 846 24.98 14.8 58.7 56 6.1 43
12:55 1017 30.03 846 24.98 15.1 59.1 52 5.3 41.5
13:00 1017 30.03 846 24.98 15.4 59.7 51 5.4 41.8
13:05 1017 30.03 846 24.98 15.6 60.1 51 5.6 42.1
13:10 1017 30.03 846 24.98 15.3 59.6 51 5.4 41.7
13:15 1017 30.03 846 24.98 15.5 59.9 49 5 40.9
13:20 1017 30.03 846 24.98 15.5 59.8 51 5.5 41.8
13:25 1016 30 846 24.98 16.2 61.2 44 4 39.3
13:30 1016 30 846 24.98 17.2 63 45 5.2 41.4
13:35 1016 30 846 24.98 17.2 62.9 43 4.5 40.1
13:40 1016 30 845 24.95 17.4 63.4 41 4.3 39.8
13:45 1016 30 845 24.95 16.9 62.5 46 5.3 41.6
13:50 1016 30 845 24.95 16.8 62.2 44 4.4 40
13:55 1016 30 845 24.95 16.9 62.4 43 4.4 39.9
14:00 1016 30 845 24.95 17.7 63.9 40 4.1 39.4
14:05 1016 30 845 24.95 18.2 64.8 41 4.9 40.9
14:10 1016 30 845 24.95 17.2 62.9 42 4.4 39.9
14:15 1016 30 845 24.95 17 62.6 43 4.6 40.3
14:20 1016 30 845 24.95 16.8 62.3 43 4.3 39.7
14:25 1016 30 845 24.95 16.8 62.3 44 4.6 40.3
14:30 1016 30 845 24.95 17 62.5 43 4.5 40
14:35 1016 30 845 24.95 17.6 63.7 42 4.7 40.5
14:40 1016 30 845 24.95 18.2 64.7 39 4 39.3
14:45 1016 30 845 24.95 17.5 63.6 41 4.3 39.8
14:50 1015 29.97 845 24.95 17.9 64.2 42 4.8 40.7
14:55 1015 29.97 845 24.95 17.9 64.2 41 4.7 40.4
15:00 1016 30 845 24.95 17.6 63.6 44 5.2 41.3
15:05 1016 30 845 24.95 17.5 63.5 43 4.8 40.6
15:10 1016 30 845 24.95 17.3 63.1 43 4.7 40.5
15:15 1016 30 845 24.95 18.1 64.5 40 4.3 39.7
15:20 1016 30 845 24.95 18.9 65.9 38 4.4 40
15:25 1016 30 845 24.95 17.9 64.2 43 5.2 41.4
15:30 1016 30 845 24.95 17.3 63.1 48 6.3 43.3
15:35 1016 30 845 24.95 16.1 61 48 5.2 41.3
15:40 1016 30 845 24.95 15.1 59.2 51 5 41.1
15:45 1016 30 845 24.95 14.8 58.7 53 5.3 41.5
15:50 1016 30 845 24.95 14.4 57.9 57 6 42.8
15:55 1016 30 845 24.95 14 57.2 58 5.8 42.5
16:00 1016 30 845 24.95 13.8 56.9 59 6.1 43
16:05 1016 30 845 24.95 13.5 56.4 64 6.9 44.5
16:10 1016 30 845 24.95 13.2 55.8 67 7.2 45
16:15 1016 30 845 24.95 13.1 55.6 72 8.2 46.7
16:20 1016 30 845 24.95 13 55.4 64 6.3 43.4
16:25 1016 30 845 24.95 13.2 55.8 61 6 42.8
16:30 1016 30 845 24.95 13.2 55.8 63 6.5 43.7
16:35 1016 30 845 24.95 13.5 56.2 67 7.6 45.7
16:40 1016 30 845 24.95 13.4 56 66 7.1 44.8
16:45 1016 30 845 24.95 13.8 56.8 64 7.1 44.8
16:50 1016 30 845 24.95 14.1 57.4 60 6.6 43.9
16:55 1016 30 845 24.95 14.3 57.8 62 7.2 44.9
17:00 1016 30 845 24.95 14.5 58.2 59 6.8 44.2
17:05 1016 30 845 24.95 14.8 58.7 55 6 42.8
17:10 1016 30 845 24.95 14.9 58.7 55 6 42.9
17:15 1016 30 845 24.95 14.8 58.7 56 6.3 43.3
17:20 1016 30 845 24.95 14.9 58.8 57 6.5 43.6
17:25 1016 30 845 24.95 14.9 58.8 59 7.1 44.8
17:30 1016 30 845 24.95 15.1 59.1 58 6.8 44.3
17:35 1016 30 845 24.95 15.2 59.3 59 7.3 45.1
17:40 1016 30 845 24.95 15.3 59.5 59 7.5 45.5
17:45 1016 30 845 24.95 15.1 59.3 59 7.3 45.2
17:50 1016 30 845 24.95 15.1 59.1 60 7.4 45.3
17:55 1016 30 845 24.95 15 59 56 6.4 43.5
18:00 1016 30 845 24.95 15.2 59.3 61 7.6 45.8
18:05 1016 30 845 24.95 15.1 59.3 63 8.2 46.7
18:10 1016 30 845 24.95 15.1 59.1 69 9.5 49.2
18:15 1016 30 845 24.95 15.1 59.1 73 10.4 50.7
18:20 1016 30 845 24.95 14.8 58.6 72 9.8 49.7
18:25 1016 30 845 24.95 14.6 58.3 74 10 50
18:30 1016 30 845 24.95 14.8 58.7 57 6.4 43.5
18:35 1016 30 845 24.95 15.2 59.3 54 6 42.9
18:40 1016 30 845 24.95 15.2 59.4 58 7.2 44.9
18:45 1016 30 845 24.95 15.2 59.3 62 8 46.5
18:50 1016 30 845 24.95 15 58.9 58 6.8 44.2
18:55 1016 30 845 24.95 14.9 58.7 59 7.1 44.7
19:00 1016 30 845 24.95 14.7 58.5 57 6.4 43.5
19:05 1016 30 845 24.95 14.7 58.5 58 6.5 43.7
19:10 1016 30 845 24.95 14.7 58.4 58 6.6 43.8
19:15 1016 30 845 24.95 14.6 58.2 62 7.4 45.3
19:20 1016 30 845 24.95 14.4 58 68 8.7 47.7
19:25 1016 30 845 24.95 13.8 56.9 63 6.9 44.4
19:30 1016 30 846 24.98 13.6 56.4 63 6.8 44.2
19:35 1016 30 846 24.98 13.4 56.1 65 7.1 44.7
19:40 1016 30 846 24.98 13.1 55.5 66 6.8 44.3
19:45 1016 30 846 24.98 12.7 54.9 72 7.8 46
19:50 1016 30 846 24.98 12.1 53.8 75 7.9 46.3
19:55 1017 30.03 846 24.98 11.4 52.5 77 7.6 45.7
20:00 1017 30.03 846 24.98 11.3 52.3 75 7.1 44.8
20:05 1017 30.03 846 24.98 11.5 52.6 72 6.6 43.9
20:10 1017 30.03 846 24.98 11.6 52.9 75 7.3 45.1
20:15 1017 30.03 846 24.98 11.4 52.6 76 7.3 45.2
20:20 1017 30.03 846 24.98 11.3 52.4 75 7.2 44.9
20:25 1017 30.03 846 24.98 11.3 52.3 75 7.1 44.8
20:30 1017 30.03 846 24.98 11.3 52.3 74 6.9 44.3
20:35 1017 30.03 846 24.98 11.3 52.3 74 6.9 44.4
20:40 1017 30.03 846 24.98 11.3 52.4 72 6.5 43.6
20:45 1017 30.03 846 24.98 11.5 52.7 71 6.4 43.5
20:50 1017 30.03 846 24.98 11.6 52.8 69 6.2 43.2
20:55 1017 30.03 846 24.98 11.7 53.1 69 6.2 43.2
21:00 1017 30.03 846 24.98 11.7 53 71 6.6 43.9
21:05 1017 30.03 846 24.98 11.3 52.4 72 6.6 43.8
21:10 1017 30.03 846 24.98 11 51.9 73 6.4 43.5
21:15 1017 30.03 846 24.98 11 51.7 76 7 44.6
21:20 1017 30.03 846 24.98 10.6 51 78 6.9 44.3
21:25 1017 30.03 846 24.98 10.6 51 77 6.7 44.1
21:30 1017 30.03 846 24.98 10.6 51.1 77 6.7 44
21:35 1017 30.03 846 24.98 10.6 51 78 6.8 44.3
21:40 1017 30.03 846 24.98 10.5 50.8 78 6.8 44.2
21:45 1017 30.03 846 24.98 10.5 50.9 78 6.8 44.2
21:50 1017 30.03 846 24.98 10.6 51 76 6.6 43.8
21:55 1017 30.03 846 24.98 10.8 51.4 75 6.6 43.8
22:00 1017 30.03 846 24.98 10.7 51.2 77 6.8 44.2
22:05 1017 30.03 846 24.98 10.6 51.1 75 6.3 43.4
22:10 1017 30.03 846 24.98 10.6 51 75 6.4 43.4
22:15 1017 30.03 846 24.98 10.4 50.8 75 6.3 43.3
22:20 1017 30.03 846 24.98 10.5 50.8 76 6.3 43.4
22:25 1017 30.03 846 24.98 10.3 50.5 79 6.8 44.3
22:30 1017 30.03 846 24.98 9.6 49.3 82 6.6 43.9
22:35 1017 30.03 846 24.98 9.3 48.7 82 6.4 43.5
22:40 1017 30.03 846 24.98 9.2 48.5 83 6.4 43.5
22:45 1017 30.03 846 24.98 9.2 48.5 81 6.1 43
22:50 1017 30.03 846 24.98 9.5 49 79 6.1 42.9
22:55 1017 30.03 847 25.01 9.6 49.3 79 6.2 43.1
23:00 1017 30.03 847 25.01 9.6 49.3 79 6.1 43.1
23:05 1017 30.03 847 25.01 9.6 49.2 79 6.1 43
23:10 1017 30.03 847 25.01 9.5 49.1 79 6.1 42.9
23:15 1018 30.06 847 25.01 9.5 49 80 6.2 43.2
23:20 1018 30.06 847 25.01 9.4 48.9 80 6.1 43.1
23:25 1018 30.06 847 25.01 9.4 48.9 80 6.1 43
23:30 1018 30.06 847 25.01 9.3 48.8 81 6.2 43.2
23:35 1018 30.06 847 25.01 9.4 48.9 79 5.9 42.6
23:40 1018 30.06 847 25.01 9.5 49.2 78 5.9 42.6
23:45 1018 30.06 847 25.01 9.6 49.3 78 6 42.7
23:50 1018 30.06 847 25.01 9.7 49.4 78 6 42.9
23:55 1018 30.06 847 25.01 9.7 49.5 78 6.1 43
24:00 1018 30.06 847 25.01 9.7 49.4 80 6.4 43.5